<?xml version="1.0" encoding="UTF-8" standalone="no" ?>
<gpx xmlns="http://www.topografix.com/GPX/1/1" xmlns:xsi="http://www.w3.org/2001/XMLSchema-instance" xsi:schemaLocation="http://www.topografix.com/GPX/1/1 http://www.topografix.com/GPX/1/1/gpx.xsd" version="1.1" creator="VisuGPX - https://www.visugpx.com">
  <metadata>
    <name>La Chapelle-en-Vexin ( boucle)</name>
    <desc><![CDATA[La Chapelle-en-Vexin ( boucle)]]></desc>
  </metadata>
  <trk>
    <name><![CDATA[CHAPELLE-en-VEXIN boucle de 38 km]]></name>
    <cmt><![CDATA[Boucle de 38 km au départ de la Chapelle-enVexin projet]]></cmt>
    <desc><![CDATA[Boucle de 38 km au départ de la Chapelle-enVexin projet]]></desc>
    <trkseg>
      <trkpt lat="49.18313" lon="1.73191">
        <ele>144.6</ele>
        <time>2012-04-23T11:32:56Z</time>
      </trkpt>
      <trkpt lat="49.18047" lon="1.73016">
        <ele>146.2</ele>
        <time>2012-04-23T11:33:06Z</time>
      </trkpt>
      <trkpt lat="49.17761" lon="1.72464">
        <ele>127.3</ele>
        <time>2012-04-23T11:33:16Z</time>
      </trkpt>
      <trkpt lat="49.17652" lon="1.72178">
        <ele>123.5</ele>
        <time>2012-04-23T11:33:26Z</time>
      </trkpt>
      <trkpt lat="49.17606" lon="1.71966">
        <ele>141.6</ele>
        <time>2012-04-23T11:33:36Z</time>
      </trkpt>
      <trkpt lat="49.17498" lon="1.71946">
        <ele>155.3</ele>
        <time>2012-04-23T11:33:46Z</time>
      </trkpt>
      <trkpt lat="49.17394" lon="1.71865">
        <ele>157</ele>
        <time>2012-04-23T11:33:56Z</time>
      </trkpt>
      <trkpt lat="49.16941" lon="1.71247">
        <ele>128.9</ele>
        <time>2012-04-23T11:34:06Z</time>
      </trkpt>
      <trkpt lat="49.16746" lon="1.70976">
        <ele>118.8</ele>
        <time>2012-04-23T11:34:16Z</time>
      </trkpt>
      <trkpt lat="49.16557" lon="1.70998">
        <ele>113</ele>
        <time>2012-04-23T11:34:26Z</time>
      </trkpt>
      <trkpt lat="49.16615" lon="1.70919">
        <ele>112.1</ele>
        <time>2012-04-23T11:34:36Z</time>
      </trkpt>
      <trkpt lat="49.16608" lon="1.70816">
        <ele>113.5</ele>
        <time>2012-04-23T11:34:46Z</time>
      </trkpt>
      <trkpt lat="49.16728" lon="1.69989">
        <ele>136</ele>
        <time>2012-04-23T11:34:56Z</time>
      </trkpt>
      <trkpt lat="49.16655" lon="1.69973">
        <ele>135.2</ele>
        <time>2012-04-23T11:35:06Z</time>
      </trkpt>
      <trkpt lat="49.16152" lon="1.69928">
        <ele>130.3</ele>
        <time>2012-04-23T11:35:16Z</time>
      </trkpt>
      <trkpt lat="49.15956" lon="1.69375">
        <ele>126.4</ele>
        <time>2012-04-23T11:35:26Z</time>
      </trkpt>
      <trkpt lat="49.15769" lon="1.68998">
        <ele>122.3</ele>
        <time>2012-04-23T11:35:36Z</time>
      </trkpt>
      <trkpt lat="49.16017" lon="1.68683">
        <ele>132.2</ele>
        <time>2012-04-23T11:35:46Z</time>
      </trkpt>
      <trkpt lat="49.16123" lon="1.68411">
        <ele>125.9</ele>
        <time>2012-04-23T11:35:56Z</time>
      </trkpt>
      <trkpt lat="49.16441" lon="1.68167">
        <ele>87.6</ele>
        <time>2012-04-23T11:36:06Z</time>
      </trkpt>
      <trkpt lat="49.16605" lon="1.67963">
        <ele>55.8</ele>
        <time>2012-04-23T11:36:16Z</time>
      </trkpt>
      <trkpt lat="49.16578" lon="1.67852">
        <ele>47.7</ele>
        <time>2012-04-23T11:36:26Z</time>
      </trkpt>
      <trkpt lat="49.16605" lon="1.67632">
        <ele>38.4</ele>
        <time>2012-04-23T11:36:36Z</time>
      </trkpt>
      <trkpt lat="49.16659" lon="1.67599">
        <ele>34.9</ele>
        <time>2012-04-23T11:36:46Z</time>
      </trkpt>
      <trkpt lat="49.16656" lon="1.67381">
        <ele>29</ele>
        <time>2012-04-23T11:36:56Z</time>
      </trkpt>
      <trkpt lat="49.16494" lon="1.67355">
        <ele>28.1</ele>
        <time>2012-04-23T11:37:06Z</time>
      </trkpt>
      <trkpt lat="49.16394" lon="1.67226">
        <ele>28</ele>
        <time>2012-04-23T11:37:16Z</time>
      </trkpt>
      <trkpt lat="49.16416" lon="1.67143">
        <ele>28.8</ele>
        <time>2012-04-23T11:37:26Z</time>
      </trkpt>
      <trkpt lat="49.16426" lon="1.66424">
        <ele>28</ele>
        <time>2012-04-23T11:37:36Z</time>
      </trkpt>
      <trkpt lat="49.1643" lon="1.66321">
        <ele>29.6</ele>
        <time>2012-04-23T11:37:46Z</time>
      </trkpt>
      <trkpt lat="49.16437" lon="1.66238">
        <ele>33.1</ele>
        <time>2012-04-23T11:37:56Z</time>
      </trkpt>
      <trkpt lat="49.16466" lon="1.66242">
        <ele>33.6</ele>
        <time>2012-04-23T11:38:06Z</time>
      </trkpt>
      <trkpt lat="49.16498" lon="1.65953">
        <ele>38.6</ele>
        <time>2012-04-23T11:38:16Z</time>
      </trkpt>
      <trkpt lat="49.16571" lon="1.6573">
        <ele>41.8</ele>
        <time>2012-04-23T11:38:26Z</time>
      </trkpt>
      <trkpt lat="49.16646" lon="1.65814">
        <ele>56.3</ele>
        <time>2012-04-23T11:38:36Z</time>
      </trkpt>
      <trkpt lat="49.16752" lon="1.65909">
        <ele>73.7</ele>
        <time>2012-04-23T11:38:46Z</time>
      </trkpt>
      <trkpt lat="49.16719" lon="1.66111">
        <ele>76.3</ele>
        <time>2012-04-23T11:38:56Z</time>
      </trkpt>
      <trkpt lat="49.16986" lon="1.6607">
        <ele>108.2</ele>
        <time>2012-04-23T11:39:06Z</time>
      </trkpt>
      <trkpt lat="49.16999" lon="1.65972">
        <ele>111.6</ele>
        <time>2012-04-23T11:39:16Z</time>
      </trkpt>
      <trkpt lat="49.1712" lon="1.65863">
        <ele>118.2</ele>
        <time>2012-04-23T11:39:26Z</time>
      </trkpt>
      <trkpt lat="49.17321" lon="1.65655">
        <ele>120.7</ele>
        <time>2012-04-23T11:39:36Z</time>
      </trkpt>
      <trkpt lat="49.17532" lon="1.65272">
        <ele>123</ele>
        <time>2012-04-23T11:39:46Z</time>
      </trkpt>
      <trkpt lat="49.17645" lon="1.65411">
        <ele>124.6</ele>
        <time>2012-04-23T11:39:56Z</time>
      </trkpt>
      <trkpt lat="49.17637" lon="1.65527">
        <ele>123.3</ele>
        <time>2012-04-23T11:40:06Z</time>
      </trkpt>
      <trkpt lat="49.17728" lon="1.65711">
        <ele>117.2</ele>
        <time>2012-04-23T11:40:16Z</time>
      </trkpt>
      <trkpt lat="49.181" lon="1.65932">
        <ele>69.1</ele>
        <time>2012-04-23T11:40:26Z</time>
      </trkpt>
      <trkpt lat="49.18192" lon="1.65904">
        <ele>58.6</ele>
        <time>2012-04-23T11:40:36Z</time>
      </trkpt>
      <trkpt lat="49.18212" lon="1.65924">
        <ele>55.5</ele>
        <time>2012-04-23T11:40:46Z</time>
      </trkpt>
      <trkpt lat="49.18257" lon="1.65886">
        <ele>52</ele>
        <time>2012-04-23T11:40:56Z</time>
      </trkpt>
      <trkpt lat="49.18345" lon="1.65932">
        <ele>54.6</ele>
        <time>2012-04-23T11:41:06Z</time>
      </trkpt>
      <trkpt lat="49.1856" lon="1.65834">
        <ele>68.4</ele>
        <time>2012-04-23T11:41:16Z</time>
      </trkpt>
      <trkpt lat="49.18781" lon="1.65958">
        <ele>61.8</ele>
        <time>2012-04-23T11:41:26Z</time>
      </trkpt>
      <trkpt lat="49.18878" lon="1.66018">
        <ele>56.1</ele>
        <time>2012-04-23T11:41:36Z</time>
      </trkpt>
      <trkpt lat="49.18999" lon="1.66112">
        <ele>49.1</ele>
        <time>2012-04-23T11:41:46Z</time>
      </trkpt>
      <trkpt lat="49.19121" lon="1.66155">
        <ele>54.6</ele>
        <time>2012-04-23T11:41:56Z</time>
      </trkpt>
      <trkpt lat="49.19247" lon="1.66202">
        <ele>61</ele>
        <time>2012-04-23T11:42:06Z</time>
      </trkpt>
      <trkpt lat="49.19366" lon="1.66221">
        <ele>64.6</ele>
        <time>2012-04-23T11:42:16Z</time>
      </trkpt>
      <trkpt lat="49.19431" lon="1.66234">
        <ele>66</ele>
        <time>2012-04-23T11:42:26Z</time>
      </trkpt>
      <trkpt lat="49.19497" lon="1.66253">
        <ele>68.7</ele>
        <time>2012-04-23T11:42:36Z</time>
      </trkpt>
      <trkpt lat="49.19546" lon="1.66256">
        <ele>72</ele>
        <time>2012-04-23T11:42:46Z</time>
      </trkpt>
      <trkpt lat="49.19623" lon="1.66282">
        <ele>75.5</ele>
        <time>2012-04-23T11:42:56Z</time>
      </trkpt>
      <trkpt lat="49.19694" lon="1.66275">
        <ele>78</ele>
        <time>2012-04-23T11:43:06Z</time>
      </trkpt>
      <trkpt lat="49.19691" lon="1.66096">
        <ele>88.1</ele>
        <time>2012-04-23T11:43:16Z</time>
      </trkpt>
      <trkpt lat="49.19749" lon="1.66079">
        <ele>87.9</ele>
        <time>2012-04-23T11:43:26Z</time>
      </trkpt>
      <trkpt lat="49.1981" lon="1.66064">
        <ele>84</ele>
        <time>2012-04-23T11:43:36Z</time>
      </trkpt>
      <trkpt lat="49.19878" lon="1.66125">
        <ele>76.7</ele>
        <time>2012-04-23T11:43:46Z</time>
      </trkpt>
      <trkpt lat="49.19898" lon="1.65809">
        <ele>67.5</ele>
        <time>2012-04-23T11:43:56Z</time>
      </trkpt>
      <trkpt lat="49.19938" lon="1.65668">
        <ele>65.4</ele>
        <time>2012-04-23T11:44:06Z</time>
      </trkpt>
      <trkpt lat="49.20039" lon="1.65564">
        <ele>63.7</ele>
        <time>2012-04-23T11:44:16Z</time>
      </trkpt>
      <trkpt lat="49.2004" lon="1.65742">
        <ele>66.9</ele>
        <time>2012-04-23T11:44:26Z</time>
      </trkpt>
      <trkpt lat="49.20056" lon="1.65797">
        <ele>70.1</ele>
        <time>2012-04-23T11:44:36Z</time>
      </trkpt>
      <trkpt lat="49.20096" lon="1.65827">
        <ele>75.3</ele>
        <time>2012-04-23T11:44:46Z</time>
      </trkpt>
      <trkpt lat="49.20107" lon="1.65769">
        <ele>77.4</ele>
        <time>2012-04-23T11:44:56Z</time>
      </trkpt>
      <trkpt lat="49.20272" lon="1.65451">
        <ele>93.4</ele>
        <time>2012-04-23T11:45:06Z</time>
      </trkpt>
      <trkpt lat="49.20452" lon="1.65205">
        <ele>103.3</ele>
        <time>2012-04-23T11:45:16Z</time>
      </trkpt>
      <trkpt lat="49.206" lon="1.64816">
        <ele>112.1</ele>
        <time>2012-04-23T11:45:26Z</time>
      </trkpt>
      <trkpt lat="49.20741" lon="1.64615">
        <ele>108.6</ele>
        <time>2012-04-23T11:45:36Z</time>
      </trkpt>
      <trkpt lat="49.20971" lon="1.64424">
        <ele>124.8</ele>
        <time>2012-04-23T11:45:46Z</time>
      </trkpt>
      <trkpt lat="49.21103" lon="1.64336">
        <ele>138</ele>
        <time>2012-04-23T11:45:56Z</time>
      </trkpt>
      <trkpt lat="49.21103" lon="1.64367">
        <ele>136.6</ele>
        <time>2012-04-23T11:46:06Z</time>
      </trkpt>
      <trkpt lat="49.21345" lon="1.64549">
        <ele>126.4</ele>
        <time>2012-04-23T11:46:16Z</time>
      </trkpt>
      <trkpt lat="49.21549" lon="1.64563">
        <ele>106.7</ele>
        <time>2012-04-23T11:46:26Z</time>
      </trkpt>
      <trkpt lat="49.21657" lon="1.64528">
        <ele>99.5</ele>
        <time>2012-04-23T11:46:36Z</time>
      </trkpt>
      <trkpt lat="49.21739" lon="1.64393">
        <ele>101.2</ele>
        <time>2012-04-23T11:46:46Z</time>
      </trkpt>
      <trkpt lat="49.21704" lon="1.64189">
        <ele>109.8</ele>
        <time>2012-04-23T11:46:56Z</time>
      </trkpt>
      <trkpt lat="49.21852" lon="1.63904">
        <ele>133.9</ele>
        <time>2012-04-23T11:47:06Z</time>
      </trkpt>
      <trkpt lat="49.21935" lon="1.63811">
        <ele>141</ele>
        <time>2012-04-23T11:47:16Z</time>
      </trkpt>
      <trkpt lat="49.2198" lon="1.63671">
        <ele>141.6</ele>
        <time>2012-04-23T11:47:26Z</time>
      </trkpt>
      <trkpt lat="49.22261" lon="1.64159">
        <ele>139</ele>
        <time>2012-04-23T11:47:36Z</time>
      </trkpt>
      <trkpt lat="49.22401" lon="1.64315">
        <ele>138</ele>
        <time>2012-04-23T11:47:46Z</time>
      </trkpt>
      <trkpt lat="49.22628" lon="1.64645">
        <ele>132.4</ele>
        <time>2012-04-23T11:47:56Z</time>
      </trkpt>
      <trkpt lat="49.22869" lon="1.64961">
        <ele>127.8</ele>
        <time>2012-04-23T11:48:06Z</time>
      </trkpt>
      <trkpt lat="49.23269" lon="1.65226">
        <ele>139.8</ele>
        <time>2012-04-23T11:48:16Z</time>
      </trkpt>
      <trkpt lat="49.23513" lon="1.65511">
        <ele>137.1</ele>
        <time>2012-04-23T11:48:26Z</time>
      </trkpt>
      <trkpt lat="49.23696" lon="1.65855">
        <ele>132.6</ele>
        <time>2012-04-23T11:48:36Z</time>
      </trkpt>
      <trkpt lat="49.23728" lon="1.65985">
        <ele>136.2</ele>
        <time>2012-04-23T11:48:46Z</time>
      </trkpt>
      <trkpt lat="49.23887" lon="1.66292">
        <ele>138.5</ele>
        <time>2012-04-23T11:48:56Z</time>
      </trkpt>
      <trkpt lat="49.2398" lon="1.66867">
        <ele>133.6</ele>
        <time>2012-04-23T11:49:06Z</time>
      </trkpt>
      <trkpt lat="49.24055" lon="1.67288">
        <ele>121.6</ele>
        <time>2012-04-23T11:49:16Z</time>
      </trkpt>
      <trkpt lat="49.23968" lon="1.67759">
        <ele>122.4</ele>
        <time>2012-04-23T11:49:26Z</time>
      </trkpt>
      <trkpt lat="49.2434" lon="1.67926">
        <ele>94.8</ele>
        <time>2012-04-23T11:49:36Z</time>
      </trkpt>
      <trkpt lat="49.24337" lon="1.6807">
        <ele>92</ele>
        <time>2012-04-23T11:49:46Z</time>
      </trkpt>
      <trkpt lat="49.24487" lon="1.68191">
        <ele>80.8</ele>
        <time>2012-04-23T11:49:56Z</time>
      </trkpt>
      <trkpt lat="49.24305" lon="1.69014">
        <ele>85.1</ele>
        <time>2012-04-23T11:50:06Z</time>
      </trkpt>
      <trkpt lat="49.24231" lon="1.69224">
        <ele>75.3</ele>
        <time>2012-04-23T11:50:16Z</time>
      </trkpt>
      <trkpt lat="49.2418" lon="1.69746">
        <ele>54.7</ele>
        <time>2012-04-23T11:50:26Z</time>
      </trkpt>
      <trkpt lat="49.24262" lon="1.69971">
        <ele>47.3</ele>
        <time>2012-04-23T11:50:36Z</time>
      </trkpt>
      <trkpt lat="49.24383" lon="1.70004">
        <ele>46.6</ele>
        <time>2012-04-23T11:50:46Z</time>
      </trkpt>
      <trkpt lat="49.2439" lon="1.70104">
        <ele>40.9</ele>
        <time>2012-04-23T11:50:56Z</time>
      </trkpt>
      <trkpt lat="49.24498" lon="1.70202">
        <ele>38</ele>
        <time>2012-04-23T11:51:06Z</time>
      </trkpt>
      <trkpt lat="49.2463" lon="1.70451">
        <ele>39.1</ele>
        <time>2012-04-23T11:51:16Z</time>
      </trkpt>
      <trkpt lat="49.248" lon="1.70757">
        <ele>41</ele>
        <time>2012-04-23T11:51:26Z</time>
      </trkpt>
      <trkpt lat="49.24888" lon="1.70911">
        <ele>42</ele>
        <time>2012-04-23T11:51:36Z</time>
      </trkpt>
      <trkpt lat="49.24972" lon="1.71057">
        <ele>42.9</ele>
        <time>2012-04-23T11:51:46Z</time>
      </trkpt>
      <trkpt lat="49.25157" lon="1.71192">
        <ele>44</ele>
        <time>2012-04-23T11:51:56Z</time>
      </trkpt>
      <trkpt lat="49.25411" lon="1.71227">
        <ele>44.4</ele>
        <time>2012-04-23T11:52:06Z</time>
      </trkpt>
      <trkpt lat="49.25439" lon="1.71364">
        <ele>47.2</ele>
        <time>2012-04-23T11:52:16Z</time>
      </trkpt>
      <trkpt lat="49.256" lon="1.7154">
        <ele>59.6</ele>
        <time>2012-04-23T11:52:26Z</time>
      </trkpt>
      <trkpt lat="49.25768" lon="1.72125">
        <ele>91.3</ele>
        <time>2012-04-23T11:52:36Z</time>
      </trkpt>
      <trkpt lat="49.25579" lon="1.72117">
        <ele>102.8</ele>
        <time>2012-04-23T11:52:46Z</time>
      </trkpt>
      <trkpt lat="49.25491" lon="1.72248">
        <ele>112.1</ele>
        <time>2012-04-23T11:52:56Z</time>
      </trkpt>
      <trkpt lat="49.25469" lon="1.72338">
        <ele>115.7</ele>
        <time>2012-04-23T11:53:06Z</time>
      </trkpt>
      <trkpt lat="49.25521" lon="1.7288">
        <ele>136.3</ele>
        <time>2012-04-23T11:53:16Z</time>
      </trkpt>
      <trkpt lat="49.25378" lon="1.73787">
        <ele>135.8</ele>
        <time>2012-04-23T11:53:26Z</time>
      </trkpt>
      <trkpt lat="49.25242" lon="1.74441">
        <ele>135.5</ele>
        <time>2012-04-23T11:53:36Z</time>
      </trkpt>
      <trkpt lat="49.25231" lon="1.74914">
        <ele>128.3</ele>
        <time>2012-04-23T11:53:46Z</time>
      </trkpt>
      <trkpt lat="49.25182" lon="1.74977">
        <ele>129.3</ele>
        <time>2012-04-23T11:53:56Z</time>
      </trkpt>
      <trkpt lat="49.24784" lon="1.74521">
        <ele>95.7</ele>
        <time>2012-04-23T11:54:06Z</time>
      </trkpt>
      <trkpt lat="49.24667" lon="1.7442">
        <ele>87.5</ele>
        <time>2012-04-23T11:54:16Z</time>
      </trkpt>
      <trkpt lat="49.24545" lon="1.74442">
        <ele>79.7</ele>
        <time>2012-04-23T11:54:26Z</time>
      </trkpt>
      <trkpt lat="49.24072" lon="1.7418">
        <ele>59</ele>
        <time>2012-04-23T11:54:36Z</time>
      </trkpt>
      <trkpt lat="49.23933" lon="1.74147">
        <ele>64.9</ele>
        <time>2012-04-23T11:54:46Z</time>
      </trkpt>
      <trkpt lat="49.23952" lon="1.73879">
        <ele>64.2</ele>
        <time>2012-04-23T11:54:56Z</time>
      </trkpt>
      <trkpt lat="49.23924" lon="1.73619">
        <ele>68.2</ele>
        <time>2012-04-23T11:55:06Z</time>
      </trkpt>
      <trkpt lat="49.23852" lon="1.73606">
        <ele>71.4</ele>
        <time>2012-04-23T11:55:16Z</time>
      </trkpt>
      <trkpt lat="49.23788" lon="1.73525">
        <ele>74.8</ele>
        <time>2012-04-23T11:55:26Z</time>
      </trkpt>
      <trkpt lat="49.23751" lon="1.73347">
        <ele>69.9</ele>
        <time>2012-04-23T11:55:36Z</time>
      </trkpt>
      <trkpt lat="49.23007" lon="1.72487">
        <ele>100.6</ele>
        <time>2012-04-23T11:55:46Z</time>
      </trkpt>
      <trkpt lat="49.22783" lon="1.72034">
        <ele>89.3</ele>
        <time>2012-04-23T11:55:56Z</time>
      </trkpt>
      <trkpt lat="49.22636" lon="1.71847">
        <ele>85.2</ele>
        <time>2012-04-23T11:56:06Z</time>
      </trkpt>
      <trkpt lat="49.22423" lon="1.71771">
        <ele>75.1</ele>
        <time>2012-04-23T11:56:16Z</time>
      </trkpt>
      <trkpt lat="49.22305" lon="1.71703">
        <ele>72.5</ele>
        <time>2012-04-23T11:56:26Z</time>
      </trkpt>
      <trkpt lat="49.22192" lon="1.71636">
        <ele>78.8</ele>
        <time>2012-04-23T11:56:36Z</time>
      </trkpt>
      <trkpt lat="49.2206" lon="1.71789">
        <ele>80.7</ele>
        <time>2012-04-23T11:56:46Z</time>
      </trkpt>
      <trkpt lat="49.22009" lon="1.71933">
        <ele>82.6</ele>
        <time>2012-04-23T11:56:56Z</time>
      </trkpt>
      <trkpt lat="49.21923" lon="1.72164">
        <ele>87.5</ele>
        <time>2012-04-23T11:57:06Z</time>
      </trkpt>
      <trkpt lat="49.2188" lon="1.72182">
        <ele>88</ele>
        <time>2012-04-23T11:57:16Z</time>
      </trkpt>
      <trkpt lat="49.21819" lon="1.72399">
        <ele>92.3</ele>
        <time>2012-04-23T11:57:26Z</time>
      </trkpt>
      <trkpt lat="49.21753" lon="1.72406">
        <ele>95.6</ele>
        <time>2012-04-23T11:57:36Z</time>
      </trkpt>
      <trkpt lat="49.21713" lon="1.72389">
        <ele>97.2</ele>
        <time>2012-04-23T11:57:46Z</time>
      </trkpt>
      <trkpt lat="49.21672" lon="1.72373">
        <ele>98.8</ele>
        <time>2012-04-23T11:57:56Z</time>
      </trkpt>
      <trkpt lat="49.21636" lon="1.72336">
        <ele>96.6</ele>
        <time>2012-04-23T11:58:06Z</time>
      </trkpt>
      <trkpt lat="49.2159" lon="1.72508">
        <ele>113.4</ele>
        <time>2012-04-23T11:58:16Z</time>
      </trkpt>
      <trkpt lat="49.21559" lon="1.72655">
        <ele>126.3</ele>
        <time>2012-04-23T11:58:26Z</time>
      </trkpt>
      <trkpt lat="49.21497" lon="1.72759">
        <ele>134.1</ele>
        <time>2012-04-23T11:58:36Z</time>
      </trkpt>
      <trkpt lat="49.21421" lon="1.72801">
        <ele>136.4</ele>
        <time>2012-04-23T11:58:46Z</time>
      </trkpt>
      <trkpt lat="49.20858" lon="1.73096">
        <ele>135.4</ele>
        <time>2012-04-23T11:58:56Z</time>
      </trkpt>
      <trkpt lat="49.20818" lon="1.73127">
        <ele>133.2</ele>
        <time>2012-04-23T11:59:06Z</time>
      </trkpt>
      <trkpt lat="49.20787" lon="1.73192">
        <ele>130.7</ele>
        <time>2012-04-23T11:59:16Z</time>
      </trkpt>
      <trkpt lat="49.20734" lon="1.73347">
        <ele>121.9</ele>
        <time>2012-04-23T11:59:26Z</time>
      </trkpt>
      <trkpt lat="49.20595" lon="1.7339">
        <ele>97.5</ele>
        <time>2012-04-23T11:59:36Z</time>
      </trkpt>
      <trkpt lat="49.20553" lon="1.735">
        <ele>88.9</ele>
        <time>2012-04-23T11:59:46Z</time>
      </trkpt>
      <trkpt lat="49.20504" lon="1.73569">
        <ele>80.6</ele>
        <time>2012-04-23T11:59:56Z</time>
      </trkpt>
      <trkpt lat="49.20466" lon="1.73669">
        <ele>74.8</ele>
        <time>2012-04-23T12:00:06Z</time>
      </trkpt>
      <trkpt lat="49.20426" lon="1.73704">
        <ele>74</ele>
        <time>2012-04-23T12:00:16Z</time>
      </trkpt>
      <trkpt lat="49.20365" lon="1.73701">
        <ele>74.5</ele>
        <time>2012-04-23T12:00:26Z</time>
      </trkpt>
      <trkpt lat="49.2037" lon="1.7378">
        <ele>75</ele>
        <time>2012-04-23T12:00:36Z</time>
      </trkpt>
      <trkpt lat="49.20199" lon="1.7395">
        <ele>82.1</ele>
        <time>2012-04-23T12:00:46Z</time>
      </trkpt>
      <trkpt lat="49.19972" lon="1.74419">
        <ele>86.3</ele>
        <time>2012-04-23T12:00:56Z</time>
      </trkpt>
      <trkpt lat="49.19853" lon="1.74839">
        <ele>102.2</ele>
        <time>2012-04-23T12:01:06Z</time>
      </trkpt>
      <trkpt lat="49.19685" lon="1.75084">
        <ele>116.6</ele>
        <time>2012-04-23T12:01:16Z</time>
      </trkpt>
      <trkpt lat="49.19385" lon="1.74789">
        <ele>131.9</ele>
        <time>2012-04-23T12:01:26Z</time>
      </trkpt>
      <trkpt lat="49.19014" lon="1.74266">
        <ele>141.1</ele>
        <time>2012-04-23T12:01:36Z</time>
      </trkpt>
      <trkpt lat="49.18725" lon="1.73837">
        <ele>145.9</ele>
        <time>2012-04-23T12:01:46Z</time>
      </trkpt>
      <trkpt lat="49.18651" lon="1.73509">
        <ele>142.2</ele>
        <time>2012-04-23T12:01:56Z</time>
      </trkpt>
      <trkpt lat="49.1852" lon="1.73339">
        <ele>137.1</ele>
        <time>2012-04-23T12:02:06Z</time>
      </trkpt>
      <trkpt lat="49.1843" lon="1.73237">
        <ele>138.9</ele>
        <time>2012-04-23T12:02:16Z</time>
      </trkpt>
    </trkseg>
  </trk>
</gpx>